sensor_id;sensor_type;location;lat;lon;timestamp;P1;durP1;ratioP1;P2;durP2;ratioP2
21120;SDS011;12519;43.318;21.898;2023-03-05T00:03:36;42.0;;;33.0;;
21120;SDS011;12519;43.318;21.898;2023-03-05T00:08:14;40.0;;;34.0;;
21120;SDS011;12519;43.318;21.898;2023-03-05T00:12:50;40.0;;;34.0;;
21120;SDS011;12519;43.318;21.898;2023-03-05T00:17:28;39.0;;;36.0;;
21120;SDS011;12519;43.318;21.898;2023-03-05T00:22:04;39.0;;;36.0;;
21120;SDS011;12519;43.318;21.898;2023-03-05T00:26:41;42.0;;;34.0;;
21120;SDS011;12519;43.318;21.898;2023-03-05T00:31:22;42.0;;;34.0;;
21120;SDS011;12519;43.318;21.898;2023-03-05T00:36:08;45.0;;;32.0;;
21120;SDS011;12519;43.318;21.898;2023-03-05T00:40:48;45.0;;;32.0;;
21120;SDS011;12519;43.318;21.898;2023-03-05T00:45:26;45.0;;;32.0;;
21120;SDS011;12519;43.318;21.898;2023-03-05T00:50:03;50.0;;;35.0;;
21120;SDS011;12519;43.318;21.898;2023-03-05T00:54:46;50.0;;;35.0;;
21120;SDS011;12519;43.318;21.898;2023-03-05T00:59:23;54.0;;;38.0;;
21120;SDS011;12519;43.318;21.898;2023-03-05T01:04:00;54.0;;;38.0;;
21120;SDS011;12519;43.318;21.898;2023-03-05T01:08:37;50.0;;;36.0;;
21120;SDS011;12519;43.318;21.898;2023-03-05T01:13:15;50.0;;;36.0;;
21120;SDS011;12519;43.318;21.898;2023-03-05T01:17:53;45.0;;;35.0;;
21120;SDS011;12519;43.318;21.898;2023-03-05T01:22:30;45.0;;;35.0;;
21120;SDS011;12519;43.318;21.898;2023-03-05T01:27:07;46.0;;;34.0;;
21120;SDS011;12519;43.318;21.898;2023-03-05T01:31:44;46.0;;;34.0;;
21120;SDS011;12519;43.318;21.898;2023-03-05T01:36:22;47.0;;;33.0;;
21120;SDS011;12519;43.318;21.898;2023-03-05T01:40:59;47.0;;;33.0;;
21120;SDS011;12519;43.318;21.898;2023-03-05T01:45:35;47.0;;;33.0;;
21120;SDS011;12519;43.318;21.898;2023-03-05T01:50:56;43.0;;;33.0;;
21120;SDS011;12519;43.318;21.898;2023-03-05T01:55:33;43.0;;;33.0;;
21120;SDS011;12519;43.318;21.898;2023-03-05T02:00:12;39.0;;;33.0;;
21120;SDS011;12519;43.318;21.898;2023-03-05T02:05:04;39.0;;;33.0;;
21120;SDS011;12519;43.318;21.898;2023-03-05T02:09:57;40.0;;;32.0;;
21120;SDS011;12519;43.318;21.898;2023-03-05T02:14:34;40.0;;;32.0;;
21120;SDS011;12519;43.318;21.898;2023-03-05T02:19:15;41.0;;;30.0;;
21120;SDS011;12519;43.318;21.898;2023-03-05T02:23:52;41.0;;;30.0;;
21120;SDS011;12519;43.318;21.898;2023-03-05T02:28:29;43.0;;;32.0;;
21120;SDS011;12519;43.318;21.898;2023-03-05T02:33:27;43.0;;;32.0;;
21120;SDS011;12519;43.318;21.898;2023-03-05T02:38:04;45.0;;;33.0;;
21120;SDS011;12519;43.318;21.898;2023-03-05T02:42:41;45.0;;;33.0;;
21120;SDS011;12519;43.318;21.898;2023-03-05T02:47:20;41.0;;;32.0;;
21120;SDS011;12519;43.318;21.898;2023-03-05T02:51:57;41.0;;;32.0;;
21120;SDS011;12519;43.318;21.898;2023-03-05T02:56:33;37.0;;;30.0;;
21120;SDS011;12519;43.318;21.898;2023-03-05T03:01:10;37.0;;;30.0;;
21120;SDS011;12519;43.318;21.898;2023-03-05T03:05:47;37.0;;;30.0;;
21120;SDS011;12519;43.318;21.898;2023-03-05T03:10:23;38.0;;;31.0;;
21120;SDS011;12519;43.318;21.898;2023-03-05T03:15:00;38.0;;;31.0;;
21120;SDS011;12519;43.318;21.898;2023-03-05T03:19:38;40.0;;;32.0;;
21120;SDS011;12519;43.318;21.898;2023-03-05T03:24:19;40.0;;;32.0;;
21120;SDS011;12519;43.318;21.898;2023-03-05T03:28:56;41.0;;;31.0;;
21120;SDS011;12519;43.318;21.898;2023-03-05T03:33:33;41.0;;;31.0;;
21120;SDS011;12519;43.318;21.898;2023-03-05T03:38:11;42.0;;;30.0;;
21120;SDS011;12519;43.318;21.898;2023-03-05T03:42:49;42.0;;;30.0;;
21120;SDS011;12519;43.318;21.898;2023-03-05T03:47:27;42.0;;;31.0;;
21120;SDS011;12519;43.318;21.898;2023-03-05T03:52:07;42.0;;;31.0;;
21120;SDS011;12519;43.318;21.898;2023-03-05T03:56:44;42.0;;;32.0;;
21120;SDS011;12519;43.318;21.898;2023-03-05T04:01:22;42.0;;;32.0;;
21120;SDS011;12519;43.318;21.898;2023-03-05T04:05:59;42.0;;;32.0;;
21120;SDS011;12519;43.318;21.898;2023-03-05T04:10:36;44.0;;;32.0;;
21120;SDS011;12519;43.318;21.898;2023-03-05T04:15:13;44.0;;;32.0;;
21120;SDS011;12519;43.318;21.898;2023-03-05T04:19:50;47.0;;;31.0;;
21120;SDS011;12519;43.318;21.898;2023-03-05T04:24:27;47.0;;;31.0;;
21120;SDS011;12519;43.318;21.898;2023-03-05T04:29:03;42.0;;;31.0;;
21120;SDS011;12519;43.318;21.898;2023-03-05T04:33:39;42.0;;;31.0;;
21120;SDS011;12519;43.318;21.898;2023-03-05T04:38:16;36.0;;;31.0;;
21120;SDS011;12519;43.318;21.898;2023-03-05T04:42:53;36.0;;;31.0;;
21120;SDS011;12519;43.318;21.898;2023-03-05T04:47:29;36.0;;;30.0;;
21120;SDS011;12519;43.318;21.898;2023-03-05T04:52:06;36.0;;;30.0;;
21120;SDS011;12519;43.318;21.898;2023-03-05T04:56:49;37.0;;;29.0;;
21120;SDS011;12519;43.318;21.898;2023-03-05T05:01:26;37.0;;;29.0;;
21120;SDS011;12519;43.318;21.898;2023-03-05T05:06:03;37.0;;;29.0;;
21120;SDS011;12519;43.318;21.898;2023-03-05T05:10:42;38.0;;;30.0;;
21120;SDS011;12519;43.318;21.898;2023-03-05T05:15:19;38.0;;;30.0;;
21120;SDS011;12519;43.318;21.898;2023-03-05T05:19:56;40.0;;;30.0;;
21120;SDS011;12519;43.318;21.898;2023-03-05T05:24:35;40.0;;;30.0;;
21120;SDS011;12519;43.318;21.898;2023-03-05T05:29:11;38.0;;;28.0;;
21120;SDS011;12519;43.318;21.898;2023-03-05T05:33:48;38.0;;;28.0;;
21120;SDS011;12519;43.318;21.898;2023-03-05T05:38:24;37.0;;;27.0;;
21120;SDS011;12519;43.318;21.898;2023-03-05T05:43:01;37.0;;;27.0;;
21120;SDS011;12519;43.318;21.898;2023-03-05T05:47:38;40.0;;;27.0;;
21120;SDS011;12519;43.318;21.898;2023-03-05T06:01:44;42.0;;;27.0;;
21120;SDS011;12519;43.318;21.898;2023-03-05T06:06:21;42.0;;;27.0;;
21120;SDS011;12519;43.318;21.898;2023-03-05T06:11:03;43.0;;;28.0;;
21120;SDS011;12519;43.318;21.898;2023-03-05T06:15:41;43.0;;;28.0;;
21120;SDS011;12519;43.318;21.898;2023-03-05T06:20:17;44.0;;;29.0;;
21120;SDS011;12519;43.318;21.898;2023-03-05T06:24:55;44.0;;;29.0;;
21120;SDS011;12519;43.318;21.898;2023-03-05T06:29:32;41.0;;;28.0;;
21120;SDS011;12519;43.318;21.898;2023-03-05T06:34:09;41.0;;;28.0;;
21120;SDS011;12519;43.318;21.898;2023-03-05T06:38:46;38.0;;;28.0;;
21120;SDS011;12519;43.318;21.898;2023-03-05T06:43:29;38.0;;;28.0;;
21120;SDS011;12519;43.318;21.898;2023-03-05T06:48:07;32.0;;;26.0;;
21120;SDS011;12519;43.318;21.898;2023-03-05T06:52:44;32.0;;;26.0;;
21120;SDS011;12519;43.318;21.898;2023-03-05T06:57:25;27.0;;;25.0;;
21120;SDS011;12519;43.318;21.898;2023-03-05T07:02:01;27.0;;;25.0;;
21120;SDS011;12519;43.318;21.898;2023-03-05T07:06:38;27.0;;;25.0;;
21120;SDS011;12519;43.318;21.898;2023-03-05T07:11:18;33.0;;;27.0;;
21120;SDS011;12519;43.318;21.898;2023-03-05T07:15:57;33.0;;;27.0;;
21120;SDS011;12519;43.318;21.898;2023-03-05T07:20:34;39.0;;;29.0;;
21120;SDS011;12519;43.318;21.898;2023-03-05T07:25:12;39.0;;;29.0;;
21120;SDS011;12519;43.318;21.898;2023-03-05T07:29:48;37.0;;;29.0;;
21120;SDS011;12519;43.318;21.898;2023-03-05T07:34:25;37.0;;;29.0;;
21120;SDS011;12519;43.318;21.898;2023-03-05T07:39:02;35.0;;;29.0;;
21120;SDS011;12519;43.318;21.898;2023-03-05T07:43:39;35.0;;;29.0;;
21120;SDS011;12519;43.318;21.898;2023-03-05T07:48:16;34.0;;;26.0;;
21120;SDS011;12519;43.318;21.898;2023-03-05T07:52:54;34.0;;;26.0;;
21120;SDS011;12519;43.318;21.898;2023-03-05T07:57:30;33.0;;;22.0;;
21120;SDS011;12519;43.318;21.898;2023-03-05T08:02:08;33.0;;;22.0;;
21120;SDS011;12519;43.318;21.898;2023-03-05T08:06:48;33.0;;;22.0;;
21120;SDS011;12519;43.318;21.898;2023-03-05T08:11:24;34.0;;;24.0;;
21120;SDS011;12519;43.318;21.898;2023-03-05T08:16:03;34.0;;;24.0;;
21120;SDS011;12519;43.318;21.898;2023-03-05T08:20:48;36.0;;;26.0;;
21120;SDS011;12519;43.318;21.898;2023-03-05T08:25:24;36.0;;;26.0;;
21120;SDS011;12519;43.318;21.898;2023-03-05T08:30:00;33.0;;;24.0;;
21120;SDS011;12519;43.318;21.898;2023-03-05T08:34:37;33.0;;;24.0;;
21120;SDS011;12519;43.318;21.898;2023-03-05T08:39:13;30.0;;;23.0;;
21120;SDS011;12519;43.318;21.898;2023-03-05T08:43:52;30.0;;;23.0;;
21120;SDS011;12519;43.318;21.898;2023-03-05T08:48:29;34.0;;;24.0;;
21120;SDS011;12519;43.318;21.898;2023-03-05T08:53:09;34.0;;;24.0;;
21120;SDS011;12519;43.318;21.898;2023-03-05T08:57:46;37.0;;;26.0;;
21120;SDS011;12519;43.318;21.898;2023-03-05T09:02:23;37.0;;;26.0;;
21120;SDS011;12519;43.318;21.898;2023-03-05T09:07:00;34.0;;;26.0;;
21120;SDS011;12519;43.318;21.898;2023-03-05T09:11:36;34.0;;;26.0;;
21120;SDS011;12519;43.318;21.898;2023-03-05T09:16:14;34.0;;;26.0;;
21120;SDS011;12519;43.318;21.898;2023-03-05T09:20:56;30.0;;;25.0;;
21120;SDS011;12519;43.318;21.898;2023-03-05T09:25:38;30.0;;;25.0;;
21120;SDS011;12519;43.318;21.898;2023-03-05T09:30:15;32.0;;;24.0;;
21120;SDS011;12519;43.318;21.898;2023-03-05T09:34:52;32.0;;;24.0;;
21120;SDS011;12519;43.318;21.898;2023-03-05T09:39:29;35.0;;;24.0;;
21120;SDS011;12519;43.318;21.898;2023-03-05T09:44:10;35.0;;;24.0;;
21120;SDS011;12519;43.318;21.898;2023-03-05T09:49:20;32.0;;;23.0;;
21120;SDS011;12519;43.318;21.898;2023-03-05T09:54:36;32.0;;;23.0;;
21120;SDS011;12519;43.318;21.898;2023-03-05T09:59:29;28.0;;;22.0;;
21120;SDS011;12519;43.318;21.898;2023-03-05T10:04:27;28.0;;;22.0;;
21120;SDS011;12519;43.318;21.898;2023-03-05T10:09:38;26.0;;;20.0;;
21120;SDS011;12519;43.318;21.898;2023-03-05T10:14:33;26.0;;;20.0;;
21120;SDS011;12519;43.318;21.898;2023-03-05T10:19:17;23.0;;;19.0;;
21120;SDS011;12519;43.318;21.898;2023-03-05T10:25:02;23.0;;;19.0;;
21120;SDS011;12519;43.318;21.898;2023-03-05T10:30:22;22.0;;;19.0;;
21120;SDS011;12519;43.318;21.898;2023-03-05T10:36:13;22.0;;;19.0;;
21120;SDS011;12519;43.318;21.898;2023-03-05T10:41:36;22.0;;;19.0;;
21120;SDS011;12519;43.318;21.898;2023-03-05T10:46:58;22.0;;;19.0;;
21120;SDS011;12519;43.318;21.898;2023-03-05T10:52:02;23.0;;;20.0;;
21120;SDS011;12519;43.318;21.898;2023-03-05T10:57:03;23.0;;;20.0;;
21120;SDS011;12519;43.318;21.898;2023-03-05T11:02:01;24.0;;;21.0;;
21120;SDS011;12519;43.318;21.898;2023-03-05T11:06:43;24.0;;;21.0;;
21120;SDS011;12519;43.318;21.898;2023-03-05T11:11:21;27.0;;;22.0;;
21120;SDS011;12519;43.318;21.898;2023-03-05T11:15:58;27.0;;;22.0;;
21120;SDS011;12519;43.318;21.898;2023-03-05T11:20:51;30.0;;;23.0;;
21120;SDS011;12519;43.318;21.898;2023-03-05T11:25:57;30.0;;;23.0;;
21120;SDS011;12519;43.318;21.898;2023-03-05T11:30:58;28.0;;;23.0;;
21120;SDS011;12519;43.318;21.898;2023-03-05T11:36:09;28.0;;;23.0;;
21120;SDS011;12519;43.318;21.898;2023-03-05T11:41:08;27.0;;;23.0;;
21120;SDS011;12519;43.318;21.898;2023-03-05T11:45:48;27.0;;;23.0;;
21120;SDS011;12519;43.318;21.898;2023-03-05T11:50:40;27.0;;;23.0;;
21120;SDS011;12519;43.318;21.898;2023-03-05T11:55:39;27.0;;;23.0;;
21120;SDS011;12519;43.318;21.898;2023-03-05T12:31:36;19.0;;;18.0;;
21120;SDS011;12519;43.318;21.898;2023-03-05T12:36:37;19.0;;;18.0;;
21120;SDS011;12519;43.318;21.898;2023-03-05T12:41:34;19.0;;;18.0;;
21120;SDS011;12519;43.318;21.898;2023-03-05T12:46:27;19.0;;;18.0;;
21120;SDS011;12519;43.318;21.898;2023-03-05T12:51:04;20.0;;;18.0;;
21120;SDS011;12519;43.318;21.898;2023-03-05T12:56:11;20.0;;;18.0;;
21120;SDS011;12519;43.318;21.898;2023-03-05T13:01:19;20.0;;;19.0;;
21120;SDS011;12519;43.318;21.898;2023-03-05T13:06:30;20.0;;;19.0;;
21120;SDS011;12519;43.318;21.898;2023-03-05T13:11:21;20.0;;;18.0;;
21120;SDS011;12519;43.318;21.898;2023-03-05T13:16:03;20.0;;;18.0;;
21120;SDS011;12519;43.318;21.898;2023-03-05T13:21:05;21.0;;;18.0;;
21120;SDS011;12519;43.318;21.898;2023-03-05T13:26:13;21.0;;;18.0;;
21120;SDS011;12519;43.318;21.898;2023-03-05T13:31:03;22.0;;;19.0;;
21120;SDS011;12519;43.318;21.898;2023-03-05T13:35:51;22.0;;;19.0;;
21120;SDS011;12519;43.318;21.898;2023-03-05T13:40:32;24.0;;;20.0;;
21120;SDS011;12519;43.318;21.898;2023-03-05T13:45:28;24.0;;;20.0;;
21120;SDS011;12519;43.318;21.898;2023-03-05T13:50:28;22.0;;;19.0;;
21120;SDS011;12519;43.318;21.898;2023-03-05T13:55:16;22.0;;;19.0;;
21120;SDS011;12519;43.318;21.898;2023-03-05T13:59:54;21.0;;;18.0;;
21120;SDS011;12519;43.318;21.898;2023-03-05T14:04:43;21.0;;;18.0;;
21120;SDS011;12519;43.318;21.898;2023-03-05T14:09:30;20.0;;;16.0;;
21120;SDS011;12519;43.318;21.898;2023-03-05T14:14:27;20.0;;;16.0;;
21120;SDS011;12519;43.318;21.898;2023-03-05T14:19:37;20.0;;;14.0;;
21120;SDS011;12519;43.318;21.898;2023-03-05T14:24:25;20.0;;;14.0;;
21120;SDS011;12519;43.318;21.898;2023-03-05T14:29:20;18.0;;;15.0;;
21120;SDS011;12519;43.318;21.898;2023-03-05T14:34:07;18.0;;;15.0;;
21120;SDS011;12519;43.318;21.898;2023-03-05T14:39:00;17.0;;;16.0;;
21120;SDS011;12519;43.318;21.898;2023-03-05T14:43:37;17.0;;;16.0;;
21120;SDS011;12519;43.318;21.898;2023-03-05T14:48:17;16.0;;;15.0;;
21120;SDS011;12519;43.318;21.898;2023-03-05T14:53:13;16.0;;;15.0;;
21120;SDS011;12519;43.318;21.898;2023-03-05T14:58:11;15.0;;;14.0;;
21120;SDS011;12519;43.318;21.898;2023-03-05T15:02:57;15.0;;;14.0;;
21120;SDS011;12519;43.318;21.898;2023-03-05T15:07:35;15.0;;;14.0;;
21120;SDS011;12519;43.318;21.898;2023-03-05T15:12:16;16.0;;;16.0;;
21120;SDS011;12519;43.318;21.898;2023-03-05T15:16:54;16.0;;;16.0;;
21120;SDS011;12519;43.318;21.898;2023-03-05T15:21:30;18.0;;;17.0;;
21120;SDS011;12519;43.318;21.898;2023-03-05T15:26:13;18.0;;;17.0;;
21120;SDS011;12519;43.318;21.898;2023-03-05T15:30:50;18.0;;;16.0;;
21120;SDS011;12519;43.318;21.898;2023-03-05T15:35:26;18.0;;;16.0;;
21120;SDS011;12519;43.318;21.898;2023-03-05T15:40:06;18.0;;;15.0;;
21120;SDS011;12519;43.318;21.898;2023-03-05T15:44:44;18.0;;;15.0;;
21120;SDS011;12519;43.318;21.898;2023-03-05T15:49:21;18.0;;;15.0;;
21120;SDS011;12519;43.318;21.898;2023-03-05T15:53:58;18.0;;;15.0;;
21120;SDS011;12519;43.318;21.898;2023-03-05T15:58:35;17.0;;;15.0;;
21120;SDS011;12519;43.318;21.898;2023-03-05T16:03:11;17.0;;;15.0;;
21120;SDS011;12519;43.318;21.898;2023-03-05T16:07:53;16.0;;;14.0;;
21120;SDS011;12519;43.318;21.898;2023-03-05T16:12:39;16.0;;;14.0;;
21120;SDS011;12519;43.318;21.898;2023-03-05T16:17:22;16.0;;;14.0;;
21120;SDS011;12519;43.318;21.898;2023-03-05T16:21:59;16.0;;;13.0;;
21120;SDS011;12519;43.318;21.898;2023-03-05T16:26:40;16.0;;;13.0;;
21120;SDS011;12519;43.318;21.898;2023-03-05T16:31:17;18.0;;;16.0;;
21120;SDS011;12519;43.318;21.898;2023-03-05T16:36:24;18.0;;;16.0;;
21120;SDS011;12519;43.318;21.898;2023-03-05T16:41:04;20.0;;;19.0;;
21120;SDS011;12519;43.318;21.898;2023-03-05T16:45:40;20.0;;;19.0;;
21120;SDS011;12519;43.318;21.898;2023-03-05T16:50:17;25.0;;;22.0;;
21120;SDS011;12519;43.318;21.898;2023-03-05T16:54:54;25.0;;;22.0;;
21120;SDS011;12519;43.318;21.898;2023-03-05T16:59:31;30.0;;;25.0;;
21120;SDS011;12519;43.318;21.898;2023-03-05T17:04:08;30.0;;;25.0;;
21120;SDS011;12519;43.318;21.898;2023-03-05T17:08:48;37.0;;;31.0;;
21120;SDS011;12519;43.318;21.898;2023-03-05T17:13:25;37.0;;;31.0;;
21120;SDS011;12519;43.318;21.898;2023-03-05T17:18:03;44.0;;;37.0;;
21120;SDS011;12519;43.318;21.898;2023-03-05T17:22:40;44.0;;;37.0;;
21120;SDS011;12519;43.318;21.898;2023-03-05T17:27:17;44.0;;;37.0;;
21120;SDS011;12519;43.318;21.898;2023-03-05T17:31:53;37.0;;;28.0;;
21120;SDS011;12519;43.318;21.898;2023-03-05T17:36:30;37.0;;;28.0;;
21120;SDS011;12519;43.318;21.898;2023-03-05T17:41:07;30.0;;;19.0;;
21120;SDS011;12519;43.318;21.898;2023-03-05T17:45:46;30.0;;;19.0;;
21120;SDS011;12519;43.318;21.898;2023-03-05T17:50:22;28.0;;;21.0;;
21120;SDS011;12519;43.318;21.898;2023-03-05T17:54:59;28.0;;;21.0;;
21120;SDS011;12519;43.318;21.898;2023-03-05T17:59:35;25.0;;;23.0;;
21120;SDS011;12519;43.318;21.898;2023-03-05T18:04:11;25.0;;;23.0;;
21120;SDS011;12519;43.318;21.898;2023-03-05T18:08:48;31.0;;;26.0;;
21120;SDS011;12519;43.318;21.898;2023-03-05T18:13:25;31.0;;;26.0;;
21120;SDS011;12519;43.318;21.898;2023-03-05T18:18:02;31.0;;;26.0;;
21120;SDS011;12519;43.318;21.898;2023-03-05T18:22:39;37.0;;;30.0;;
21120;SDS011;12519;43.318;21.898;2023-03-05T18:27:15;37.0;;;30.0;;
21120;SDS011;12519;43.318;21.898;2023-03-05T18:31:51;38.0;;;32.0;;
21120;SDS011;12519;43.318;21.898;2023-03-05T18:36:29;38.0;;;32.0;;
21120;SDS011;12519;43.318;21.898;2023-03-05T18:41:06;39.0;;;34.0;;
21120;SDS011;12519;43.318;21.898;2023-03-05T18:45:42;39.0;;;34.0;;
21120;SDS011;12519;43.318;21.898;2023-03-05T18:50:27;50.0;;;42.0;;
21120;SDS011;12519;43.318;21.898;2023-03-05T18:55:07;50.0;;;42.0;;
21120;SDS011;12519;43.318;21.898;2023-03-05T18:59:47;60.0;;;49.0;;
21120;SDS011;12519;43.318;21.898;2023-03-05T19:04:23;60.0;;;49.0;;
21120;SDS011;12519;43.318;21.898;2023-03-05T19:09:30;45.0;;;37.0;;
21120;SDS011;12519;43.318;21.898;2023-03-05T19:14:17;45.0;;;37.0;;
21120;SDS011;12519;43.318;21.898;2023-03-05T19:19:09;30.0;;;25.0;;
21120;SDS011;12519;43.318;21.898;2023-03-05T19:23:50;30.0;;;25.0;;
21120;SDS011;12519;43.318;21.898;2023-03-05T19:28:27;34.0;;;28.0;;
21120;SDS011;12519;43.318;21.898;2023-03-05T19:33:04;34.0;;;28.0;;
21120;SDS011;12519;43.318;21.898;2023-03-05T19:37:41;34.0;;;28.0;;
21120;SDS011;12519;43.318;21.898;2023-03-05T19:42:19;39.0;;;30.0;;
21120;SDS011;12519;43.318;21.898;2023-03-05T19:46:57;39.0;;;30.0;;
21120;SDS011;12519;43.318;21.898;2023-03-05T19:51:34;52.0;;;44.0;;
21120;SDS011;12519;43.318;21.898;2023-03-05T19:56:16;52.0;;;44.0;;
21120;SDS011;12519;43.318;21.898;2023-03-05T20:00:54;65.0;;;59.0;;
21120;SDS011;12519;43.318;21.898;2023-03-05T20:05:32;65.0;;;59.0;;
21120;SDS011;12519;43.318;21.898;2023-03-05T20:10:11;70.0;;;58.0;;
21120;SDS011;12519;43.318;21.898;2023-03-05T20:14:48;70.0;;;58.0;;
21120;SDS011;12519;43.318;21.898;2023-03-05T20:19:25;75.0;;;57.0;;
21120;SDS011;12519;43.318;21.898;2023-03-05T20:24:11;75.0;;;57.0;;
21120;SDS011;12519;43.318;21.898;2023-03-05T20:28:57;64.0;;;52.0;;
21120;SDS011;12519;43.318;21.898;2023-03-05T20:33:34;64.0;;;52.0;;
21120;SDS011;12519;43.318;21.898;2023-03-05T20:38:16;64.0;;;52.0;;
21120;SDS011;12519;43.318;21.898;2023-03-05T20:42:54;54.0;;;48.0;;
21120;SDS011;12519;43.318;21.898;2023-03-05T20:47:43;54.0;;;48.0;;
21120;SDS011;12519;43.318;21.898;2023-03-05T20:52:19;54.0;;;46.0;;
21120;SDS011;12519;43.318;21.898;2023-03-05T20:56:56;54.0;;;46.0;;
21120;SDS011;12519;43.318;21.898;2023-03-05T21:01:38;53.0;;;44.0;;
21120;SDS011;12519;43.318;21.898;2023-03-05T21:06:16;53.0;;;44.0;;
21120;SDS011;12519;43.318;21.898;2023-03-05T21:10:52;54.0;;;44.0;;
21120;SDS011;12519;43.318;21.898;2023-03-05T21:15:30;54.0;;;44.0;;
21120;SDS011;12519;43.318;21.898;2023-03-05T21:20:15;55.0;;;45.0;;
21120;SDS011;12519;43.318;21.898;2023-03-05T21:25:11;55.0;;;45.0;;
21120;SDS011;12519;43.318;21.898;2023-03-05T21:29:49;58.0;;;48.0;;
21120;SDS011;12519;43.318;21.898;2023-03-05T21:34:26;58.0;;;48.0;;
21120;SDS011;12519;43.318;21.898;2023-03-05T21:39:03;61.0;;;51.0;;
21120;SDS011;12519;43.318;21.898;2023-03-05T21:43:40;61.0;;;51.0;;
21120;SDS011;12519;43.318;21.898;2023-03-05T21:48:18;61.0;;;51.0;;
21120;SDS011;12519;43.318;21.898;2023-03-05T21:52:55;60.0;;;47.0;;
21120;SDS011;12519;43.318;21.898;2023-03-05T21:57:33;60.0;;;47.0;;
21120;SDS011;12519;43.318;21.898;2023-03-05T22:02:14;58.0;;;43.0;;
21120;SDS011;12519;43.318;21.898;2023-03-05T22:06:55;58.0;;;43.0;;
21120;SDS011;12519;43.318;21.898;2023-03-05T22:11:33;60.0;;;46.0;;
21120;SDS011;12519;43.318;21.898;2023-03-05T22:16:19;60.0;;;46.0;;
21120;SDS011;12519;43.318;21.898;2023-03-05T22:21:01;62.0;;;48.0;;
21120;SDS011;12519;43.318;21.898;2023-03-05T22:25:43;62.0;;;48.0;;
21120;SDS011;12519;43.318;21.898;2023-03-05T22:30:21;58.0;;;45.0;;
21120;SDS011;12519;43.318;21.898;2023-03-05T22:34:59;58.0;;;45.0;;
21120;SDS011;12519;43.318;21.898;2023-03-05T22:39:40;55.0;;;42.0;;
21120;SDS011;12519;43.318;21.898;2023-03-05T22:44:17;55.0;;;42.0;;
21120;SDS011;12519;43.318;21.898;2023-03-05T22:48:54;57.0;;;44.0;;
21120;SDS011;12519;43.318;21.898;2023-03-05T22:53:32;57.0;;;44.0;;
21120;SDS011;12519;43.318;21.898;2023-03-05T22:58:09;57.0;;;44.0;;
21120;SDS011;12519;43.318;21.898;2023-03-05T23:02:47;59.0;;;47.0;;
21120;SDS011;12519;43.318;21.898;2023-03-05T23:07:32;59.0;;;47.0;;
21120;SDS011;12519;43.318;21.898;2023-03-05T23:12:12;52.0;;;42.0;;
21120;SDS011;12519;43.318;21.898;2023-03-05T23:16:49;52.0;;;42.0;;
21120;SDS011;12519;43.318;21.898;2023-03-05T23:21:25;44.0;;;38.0;;
21120;SDS011;12519;43.318;21.898;2023-03-05T23:26:03;44.0;;;38.0;;
21120;SDS011;12519;43.318;21.898;2023-03-05T23:30:39;42.0;;;34.0;;
21120;SDS011;12519;43.318;21.898;2023-03-05T23:35:24;42.0;;;34.0;;
21120;SDS011;12519;43.318;21.898;2023-03-05T23:40:08;40.0;;;29.0;;
21120;SDS011;12519;43.318;21.898;2023-03-05T23:44:47;40.0;;;29.0;;
21120;SDS011;12519;43.318;21.898;2023-03-05T23:49:24;36.0;;;26.0;;
21120;SDS011;12519;43.318;21.898;2023-03-05T23:54:01;36.0;;;26.0;;
21120;SDS011;12519;43.318;21.898;2023-03-05T23:58:39;36.0;;;26.0;;
